Sea Sub — WDE5399 — position and weather

sailwx.info

Track history (hours):
 
Tides and Currents Weather Stations Pressure Air Temp Water Temp Dewpoint Dewpoint Depression Visibility Wind Speed Wind Dir Waves Ship Positions

Sea Sub

Owner: Sea Sub Systems, Inc., Indian Rocks Beach, FL. More information available from US FCC via Universal Licensing System and Coast Guard Vessel Documentation Center.

Last reported at 2018-Feb-10 22:25 UTC. Time now 2018-Feb-25 19:21 UTC.
Position N 27°43' W 082°36'.
Warning: this ship's position is 14 days out of date.

Length 30 m.

MMSI: 367366150.

Date/timePositionNaut miles runAvg speedWind from/ knotsBaromVisibWave heightAir tempDewpointWater temp
2018-Feb-10 22:25N 27°43' W 082°36'615.3
2018-Feb-10 22:00N 27°47' W 082°31'713.9
2018-Feb-10 21:31N 27°53' W 082°27'2 4.7
2018-Feb-10 21:00N 27°55' W 082°27'0 0.2
2018-Feb-10 20:30N 27°55' W 082°27'1 2.0
2018-Feb-10 20:00N 27°54' W 082°26'1 2.8
2018-Feb-10 19:30N 27°56' W 082°26'0 0.6
2018-Feb-10 19:00N 27°55' W 082°26'815.3
2018-Feb-10 18:30N 27°48' W 082°29'  
2018-Feb-05 17:23N 27°51' W 082°34'1 3.7
2018-Feb-05 17:00N 27°52' W 082°33'0 0.3
2018-Feb-05 16:30N 27°52' W 082°33'0 0.0
2018-Feb-05 15:30N 27°52' W 082°33'0 0.3
2018-Feb-05 15:00N 27°52' W 082°33'0 0.0
2018-Feb-05 14:30N 27°52' W 082°33'0 0.3
2018-Feb-05 14:00N 27°52' W 082°33'0 0.0
2018-Feb-05 13:30N 27°52' W 082°33'0 0.0
2018-Feb-05 13:00N 27°52' W 082°33'6 0.3
2018-Feb-04 15:24N 27°45' W 082°32'718.0
2018-Feb-04 15:01N 27°51' W 082°27'4 8.6
2018-Feb-04 14:30N 27°55' W 082°26'1 1.8
2018-Feb-04 14:00N 27°55' W 082°27'0 0.6
2018-Feb-04 13:30N 27°55' W 082°27'1 2.5
2018-Feb-04 13:00N 27°56' W 082°26'0 0.0
2018-Feb-04 12:29N 27°56' W 082°26'0 0.4
2018-Feb-04 12:00N 27°55' W 082°26'814.9
2018-Feb-04 11:30N 27°48' W 082°29'  
2018-Feb-01 17:26N 27°45' W 082°32'715.7
2018-Feb-01 17:00N 27°50' W 082°27'611.1
2018-Feb-01 16:30N 27°56' W 082°26'0 0.1
2018-Feb-01 16:00N 27°56' W 082°26'2 3.1
2018-Feb-01 15:30N 27°54' W 082°26'1 1.2
2018-Feb-01 15:00N 27°55' W 082°27'1 0.8
2018-Feb-01 13:27N 27°56' W 082°26'0 0.0
2018-Feb-01 13:00N 27°56' W 082°26'1 1.2
2018-Feb-01 12:30N 27°55' W 082°26'613.0
2018-Feb-01 12:01N 27°49' W 082°28'  
Track history (hours):
 
Tides and Currents Weather Stations Pressure Air Temp Water Temp Dewpoint Dewpoint Depression Visibility Wind Speed Wind Dir Waves Ship Positions

Sea Sub

Owner: Sea Sub Systems, Inc., Indian Rocks Beach, FL. More information available from US FCC via Universal Licensing System and Coast Guard Vessel Documentation Center.

Last reported at 2018-Feb-10 22:25 UTC. Time now 2018-Feb-25 19:21 UTC.
Position N 27°43' W 082°36'.
Warning: this ship's position is 14 days out of date.

Length 30 m.

MMSI: 367366150.

Date/timePositionNaut miles runAvg speedWind from/ knotsBaromVisibWave heightAir tempDewpointWater temp
2018-Feb-10 22:25N 27°43' W 082°36'615.3
2018-Feb-10 22:00N 27°47' W 082°31'713.9
2018-Feb-10 21:31N 27°53' W 082°27'2 4.7
2018-Feb-10 21:00N 27°55' W 082°27'0 0.2
2018-Feb-10 20:30N 27°55' W 082°27'1 2.0
2018-Feb-10 20:00N 27°54' W 082°26'1 2.8
2018-Feb-10 19:30N 27°56' W 082°26'0 0.6
2018-Feb-10 19:00N 27°55' W 082°26'815.3
2018-Feb-10 18:30N 27°48' W 082°29'  
2018-Feb-05 17:23N 27°51' W 082°34'1 3.7
2018-Feb-05 17:00N 27°52' W 082°33'0 0.3
2018-Feb-05 16:30N 27°52' W 082°33'0 0.0
2018-Feb-05 15:30N 27°52' W 082°33'0 0.3
2018-Feb-05 15:00N 27°52' W 082°33'0 0.0
2018-Feb-05 14:30N 27°52' W 082°33'0 0.3
2018-Feb-05 14:00N 27°52' W 082°33'0 0.0
2018-Feb-05 13:30N 27°52' W 082°33'0 0.0
2018-Feb-05 13:00N 27°52' W 082°33'6 0.3
2018-Feb-04 15:24N 27°45' W 082°32'718.0
2018-Feb-04 15:01N 27°51' W 082°27'4 8.6
2018-Feb-04 14:30N 27°55' W 082°26'1 1.8
2018-Feb-04 14:00N 27°55' W 082°27'0 0.6
2018-Feb-04 13:30N 27°55' W 082°27'1 2.5
2018-Feb-04 13:00N 27°56' W 082°26'0 0.0
2018-Feb-04 12:29N 27°56' W 082°26'0 0.4
2018-Feb-04 12:00N 27°55' W 082°26'814.9
2018-Feb-04 11:30N 27°48' W 082°29'  
2018-Feb-01 17:26N 27°45' W 082°32'715.7
2018-Feb-01 17:00N 27°50' W 082°27'611.1
2018-Feb-01 16:30N 27°56' W 082°26'0 0.1
2018-Feb-01 16:00N 27°56' W 082°26'2 3.1
2018-Feb-01 15:30N 27°54' W 082°26'1 1.2
2018-Feb-01 15:00N 27°55' W 082°27'1 0.8
2018-Feb-01 13:27N 27°56' W 082°26'0 0.0
2018-Feb-01 13:00N 27°56' W 082°26'1 1.2
2018-Feb-01 12:30N 27°55' W 082°26'613.0
2018-Feb-01 12:01N 27°49' W 082°28'  

Dump ship's entire track history